createdAt,value
2022-10-05T00:03:22.727Z,4.13
2022-10-05T00:08:30.170Z,4.85
2022-10-05T00:13:31.703Z,4.05
2022-10-05T00:18:33.199Z,4.85
2022-10-05T00:23:34.739Z,6.43
2022-10-05T00:28:36.322Z,5.72
2022-10-05T00:33:37.891Z,5.65
2022-10-05T00:38:40.348Z,4.53
2022-10-05T00:43:53.963Z,6.72
2022-10-05T00:49:13.701Z,4.72
2022-10-05T00:54:41.636Z,4.70
2022-10-05T01:00:02.793Z,4.70
2022-10-05T01:05:15.812Z,5.10
2022-10-05T01:10:23.314Z,4.65
2022-10-05T01:15:46.791Z,4.55
2022-10-05T01:21:00.520Z,5.15
2022-10-05T01:26:30.300Z,4.38
2022-10-05T01:31:34.934Z,7.20
2022-10-05T01:36:48.831Z,4.72
2022-10-05T01:42:03.753Z,6.18
2022-10-05T01:47:12.227Z,5.93
2022-10-05T01:57:26.525Z,8.95
2022-10-05T02:02:31.620Z,5.47
2022-10-05T02:07:42.135Z,5.60
2022-10-05T02:12:46.548Z,4.75
2022-10-05T02:17:52.740Z,4.18
2022-10-05T02:23:00.499Z,4.25
2022-10-05T02:28:10.034Z,5.63
2022-10-05T02:33:22.278Z,5.32
2022-10-05T02:38:48.968Z,4.15
2022-10-05T02:43:59.635Z,4.00
2022-10-05T02:49:37.649Z,4.03
2022-10-05T02:55:05.808Z,3.88
2022-10-05T03:00:17.607Z,4.30
2022-10-05T03:05:30.759Z,5.20
2022-10-05T03:10:42.701Z,4.05
2022-10-05T03:15:48.910Z,4.85
2022-10-05T03:21:03.234Z,5.97
2022-10-05T03:26:27.007Z,4.32
2022-10-05T03:31:46.579Z,4.75
2022-10-05T03:37:27.969Z,5.15
2022-10-05T03:42:51.262Z,4.30
2022-10-05T03:48:05.459Z,4.45
2022-10-05T03:53:14.528Z,4.47
2022-10-05T03:58:30.150Z,4.05
2022-10-05T04:03:39.694Z,4.45
2022-10-05T04:14:14.306Z,4.65
2022-10-05T04:19:24.536Z,3.65
2022-10-05T04:24:35.060Z,4.88
2022-10-05T04:29:48.230Z,4.30
2022-10-05T04:35:07.028Z,4.88
2022-10-05T04:45:38.364Z,5.35
2022-10-05T04:50:46.125Z,4.78
2022-10-05T04:55:58.309Z,4.75
2022-10-05T05:01:30.937Z,4.80
2022-10-05T05:06:40.107Z,5.15
2022-10-05T05:12:03.914Z,4.97
2022-10-05T05:17:27.819Z,5.22
2022-10-05T05:22:50.734Z,5.78
2022-10-05T05:28:16.783Z,5.57
2022-10-05T05:33:37.553Z,5.93
2022-10-05T05:38:39.919Z,5.75
2022-10-05T05:43:58.165Z,5.60
2022-10-05T05:49:07.852Z,5.68
2022-10-05T05:54:26.055Z,6.43
2022-10-05T05:59:38.381Z,4.95
2022-10-05T06:04:52.488Z,5.57
2022-10-05T06:10:26.403Z,5.35
2022-10-05T06:15:44.863Z,5.40
2022-10-05T06:21:00.797Z,5.65
2022-10-05T06:26:10.932Z,6.15
2022-10-05T06:31:29.672Z,5.82
2022-10-05T06:36:50.350Z,4.47
2022-10-05T06:42:08.317Z,4.70
2022-10-05T06:48:01.626Z,4.78
2022-10-05T06:54:03.901Z,5.28
2022-10-05T06:59:15.408Z,5.18
2022-10-05T07:04:38.879Z,5.38
2022-10-05T07:10:15.381Z,5.45
2022-10-05T07:15:36.079Z,6.07
2022-10-05T07:20:59.234Z,5.13
2022-10-05T07:26:18.865Z,5.80
2022-10-05T07:31:44.185Z,4.28
2022-10-05T07:37:18.092Z,5.40
2022-10-05T07:42:48.846Z,5.95
2022-10-05T07:47:59.491Z,4.95
2022-10-05T07:53:10.849Z,4.90
2022-10-05T07:58:34.588Z,6.72
2022-10-05T08:03:44.484Z,6.75
2022-10-05T08:09:04.464Z,6.40
2022-10-05T08:14:20.376Z,5.00
2022-10-05T08:19:30.094Z,5.50
2022-10-05T08:24:43.769Z,4.32
2022-10-05T08:29:51.476Z,4.22
2022-10-05T08:35:34.480Z,4.73
2022-10-05T08:41:14.781Z,3.80
2022-10-05T08:46:31.218Z,3.42
2022-10-05T08:51:56.759Z,4.43
2022-10-05T08:57:27.398Z,3.67
2022-10-05T09:02:47.912Z,4.35
2022-10-05T09:08:26.803Z,3.83
2022-10-05T09:14:03.842Z,3.17
2022-10-05T09:19:36.237Z,2.85
2022-10-05T09:25:03.499Z,3.05
2022-10-05T09:30:27.058Z,2.85
2022-10-05T09:36:16.707Z,3.00
2022-10-05T09:41:37.417Z,2.90
2022-10-05T09:46:50.934Z,4.95
2022-10-05T09:52:06.753Z,2.83
2022-10-05T09:57:17.432Z,3.20
2022-10-05T10:02:34.162Z,2.70
2022-10-05T10:07:56.172Z,3.33
2022-10-05T10:13:52.041Z,3.30
2022-10-05T10:19:15.575Z,2.88
2022-10-05T10:24:48.662Z,2.70
2022-10-05T10:30:27.780Z,2.83
2022-10-05T10:35:33.443Z,3.38
2022-10-05T10:41:12.695Z,2.33
2022-10-05T10:46:31.969Z,2.38
2022-10-05T10:52:01.889Z,2.72
2022-10-05T10:57:06.612Z,4.40
2022-10-05T11:02:20.273Z,2.40
2022-10-05T11:07:45.283Z,2.50
2022-10-05T11:13:11.826Z,1.95
2022-10-05T11:18:20.368Z,2.33
2022-10-05T11:23:43.275Z,1.90
2022-10-05T11:29:12.756Z,2.03
2022-10-05T11:34:37.986Z,2.70
2022-10-05T11:40:11.318Z,1.70
2022-10-05T11:45:36.833Z,2.92
2022-10-05T11:51:03.626Z,2.05
2022-10-05T12:01:45.703Z,1.77
2022-10-05T12:07:01.078Z,1.52
2022-10-05T12:12:27.027Z,1.45
2022-10-05T12:17:44.673Z,1.58
2022-10-05T12:22:55.048Z,1.20
2022-10-05T12:28:12.958Z,1.85
2022-10-05T12:33:21.238Z,2.72
2022-10-05T12:38:28.660Z,1.52
2022-10-05T12:44:06.251Z,3.87
2022-10-05T12:49:07.785Z,1.30
2022-10-05T12:54:21.801Z,1.30
2022-10-05T12:59:37.524Z,2.03
2022-10-05T13:05:02.919Z,4.03
2022-10-05T13:10:33.420Z,1.63
2022-10-05T13:15:56.129Z,1.70
2022-10-05T13:21:20.505Z,1.48
2022-10-05T13:26:31.685Z,1.52
2022-10-05T13:31:42.940Z,1.60
2022-10-05T13:36:59.882Z,1.58
2022-10-05T13:42:12.518Z,2.28
2022-10-05T13:47:35.697Z,1.40
2022-10-05T13:52:40.072Z,1.48
2022-10-05T13:57:57.857Z,1.55
2022-10-05T14:03:00.767Z,1.48
2022-10-05T14:08:02.290Z,2.42
2022-10-05T14:13:22.547Z,1.25
2022-10-05T14:18:27.411Z,2.10
2022-10-05T14:23:29.850Z,1.42
2022-10-05T14:28:39.027Z,1.35
2022-10-05T14:33:41.148Z,2.95
2022-10-05T14:38:55.430Z,2.38
2022-10-05T14:43:59.899Z,1.85
2022-10-05T14:49:33.150Z,1.83
2022-10-05T14:55:00.865Z,1.75
2022-10-05T15:00:18.623Z,1.90
2022-10-05T15:05:44.560Z,2.30
2022-10-05T15:10:56.549Z,2.13
2022-10-05T15:16:05.428Z,2.50
2022-10-05T15:21:35.798Z,3.00
2022-10-05T15:26:51.432Z,2.25
2022-10-05T15:31:59.069Z,2.33
2022-10-05T15:37:22.594Z,4.20
2022-10-05T15:42:39.022Z,2.92
2022-10-05T15:48:00.014Z,7.25
2022-10-05T15:53:20.607Z,3.80
2022-10-05T15:58:31.370Z,3.38
2022-10-05T16:03:51.579Z,3.92
2022-10-05T16:09:34.660Z,3.15
2022-10-05T16:15:04.264Z,2.90
2022-10-05T16:20:21.012Z,3.13
2022-10-05T16:25:34.652Z,4.80
2022-10-05T16:30:55.162Z,3.47
2022-10-05T16:36:22.769Z,3.72
2022-10-05T16:41:40.452Z,3.67
2022-10-05T16:46:54.689Z,3.03
2022-10-05T16:52:01.800Z,3.88
2022-10-05T16:57:32.675Z,3.80
2022-10-05T17:02:59.212Z,3.58
2022-10-05T17:08:08.527Z,4.13
2022-10-05T17:13:19.632Z,4.47
2022-10-05T17:18:29.957Z,5.30
2022-10-05T17:23:55.185Z,4.88
2022-10-05T17:29:16.554Z,3.63
2022-10-05T17:34:18.062Z,3.92
2022-10-05T17:39:43.883Z,6.20
2022-10-05T17:44:45.402Z,10.35
2022-10-05T17:50:18.405Z,4.68
2022-10-05T17:55:37.579Z,4.40
2022-10-05T18:00:55.979Z,4.78
2022-10-05T18:11:28.202Z,6.97
2022-10-05T18:17:02.575Z,4.35
2022-10-05T18:22:16.456Z,3.30
2022-10-05T18:28:00.762Z,5.15
2022-10-05T18:33:29.874Z,4.20
2022-10-05T18:38:55.908Z,4.30
2022-10-05T18:44:19.464Z,6.38
2022-10-05T18:49:29.037Z,4.32
2022-10-05T18:55:01.394Z,4.03
2022-10-05T19:00:15.175Z,3.50
2022-10-05T19:05:48.790Z,7.18
2022-10-05T19:10:55.602Z,4.57
2022-10-05T19:16:09.508Z,4.55
2022-10-05T19:21:27.297Z,4.35
2022-10-05T19:26:48.548Z,9.23
2022-10-05T19:32:08.976Z,7.43
2022-10-05T19:37:22.145Z,5.50
2022-10-05T19:42:52.603Z,6.53
2022-10-05T19:48:19.273Z,5.25
2022-10-05T19:53:30.231Z,4.88
2022-10-05T19:58:39.841Z,4.93
2022-10-05T20:03:47.849Z,4.70
2022-10-05T20:08:52.344Z,4.65
2022-10-05T20:13:53.957Z,4.20
2022-10-05T20:19:14.039Z,4.40
2022-10-05T20:24:21.398Z,4.80
2022-10-05T20:29:22.984Z,4.97
2022-10-05T20:34:24.706Z,6.82
2022-10-05T20:39:26.260Z,6.57
2022-10-05T20:44:27.847Z,12.15
2022-10-05T20:49:36.174Z,13.77
2022-10-05T20:54:39.055Z,14.23
2022-10-05T20:59:40.669Z,6.93
2022-10-05T21:04:47.354Z,6.72
2022-10-05T21:09:50.944Z,5.60
2022-10-05T21:14:52.700Z,5.43
2022-10-05T21:19:54.253Z,5.05
2022-10-05T21:24:55.805Z,4.95
2022-10-05T21:29:57.316Z,5.47
2022-10-05T21:34:58.909Z,7.30
2022-10-05T21:40:00.716Z,5.55
2022-10-05T21:45:02.313Z,7.35
2022-10-05T21:50:05.214Z,5.57
2022-10-05T21:55:07.549Z,17.00
2022-10-05T22:00:11.302Z,12.73
2022-10-05T22:05:13.222Z,9.40
2022-10-05T22:10:14.980Z,16.33
2022-10-05T22:15:16.705Z,9.30
2022-10-05T22:20:20.293Z,5.03
2022-10-05T22:25:22.548Z,7.15
2022-10-05T22:30:24.094Z,5.53
2022-10-05T22:35:25.648Z,5.47
2022-10-05T22:40:27.191Z,5.53
2022-10-05T22:45:32.453Z,5.15
2022-10-05T22:50:34.503Z,4.43
2022-10-05T22:55:36.135Z,4.07
2022-10-05T23:00:57.050Z,3.80
2022-10-05T23:06:03.464Z,3.70
2022-10-05T23:11:11.897Z,3.90
2022-10-05T23:16:15.930Z,3.30
2022-10-05T23:21:19.743Z,2.80
2022-10-05T23:26:23.278Z,2.65
2022-10-05T23:31:27.173Z,2.83
2022-10-05T23:36:32.395Z,2.25
2022-10-05T23:41:34.445Z,2.42
2022-10-05T23:46:36.008Z,2.47
2022-10-05T23:51:37.562Z,2.40
2022-10-05T23:56:39.120Z,2.63
